SBPL/PNZ METAR and TAF weather

Enter ICAO airport designator
Station Type Date Time Source
SBPL METAR 2022/01/29 14:00 UTC NOAA

SBPL 291400Z 07007KT 9999 FEW020 FEW025TCU BKN090 25/22 Q1015


Station Type Date Time Source
SBPL Decoded METAR 2022/01/29 14:00 UTC NOAA

Petrolina , Brazil (SBPL) 09-21S 040-33W
Jan 29, 2022 - 09:00 AM EST / 2022.01.29 1400 UTC
Wind: from the ENE (070 degrees) at 8 MPH (7 KT):0
Visibility: greater than 7 mile(s):0
Sky conditions: mostly cloudy
Weather: Towering cumulus clouds observed
Temperature: 77 F (25 C)
Dew Point: 71 F (22 C)
Relative Humidity: 83%
Pressure (altimeter): 29.97 in. Hg (1015 hPa)
ob: SBPL 291400Z 07007KT 9999 FEW020 FEW025TCU BKN090 25/22 Q1015
cycle: 14

Station Type Date Time Source
SBPL TAF 2022/01/29 12:12 UTC NOAA

TAF SBPL 290910Z 2912/3012 15007KT 9999 BKN020 TX27/2915Z TN22/3009Z
TEMPO 2912/2915 13010KT 6000 TSRA BKN025 FEW035CB
BECMG 2915/2917 11010KT 8000 RA BKN025 FEW035TCU
TEMPO 2918/2921 4000 TSRA BKN020 FEW035CB
BECMG 2922/2924 16005KT 9999 NSW SCT030
BECMG 3003/3005 01010KT 4000 TSRA BKN020 FEW040CB
BECMG 3006/3008 11005KT 8000 RA BKN015
BECMG 3010/3012 09007KT 9999 NSW BKN020
RMK PFV

Example: see airport list